sensor_id;sensor_type;location;lat;lon;timestamp;pressure;altitude;pressure_sealevel;temperature;humidity
69171;BME280;56279;47.902;12.308;2022-07-29T00:35:05;95353.66;;;19.55;69.78
69171;BME280;56279;47.902;12.308;2022-07-29T00:57:27;95348.38;;;19.02;70.90
69171;BME280;56279;47.902;12.308;2022-07-29T01:10:28;95338.91;;;18.84;71.32
69171;BME280;56279;47.902;12.308;2022-07-29T01:12:38;95327.13;;;18.85;71.29
69171;BME280;56279;47.902;12.308;2022-07-29T01:30:20;95322.56;;;18.85;71.62
69171;BME280;56279;47.902;12.308;2022-07-29T01:34:01;95314.97;;;18.87;71.50
69171;BME280;56279;47.902;12.308;2022-07-29T01:36:59;95307.06;;;18.91;71.40
69171;BME280;56279;47.902;12.308;2022-07-29T01:39:43;95302.66;;;18.95;71.48
69171;BME280;56279;47.902;12.308;2022-07-29T01:42:42;95300.06;;;18.98;71.31
69171;BME280;56279;47.902;12.308;2022-07-29T01:48:34;95291.41;;;19.01;71.07
69171;BME280;56279;47.902;12.308;2022-07-29T01:50:49;95288.72;;;19.01;71.82
69171;BME280;56279;47.902;12.308;2022-07-29T01:57:13;95271.44;;;18.99;71.96
69171;BME280;56279;47.902;12.308;2022-07-29T01:59:36;95271.44;;;18.99;71.92
69171;BME280;56279;47.902;12.308;2022-07-29T02:02:00;95272.22;;;18.99;72.36
69171;BME280;56279;47.902;12.308;2022-07-29T02:11:59;95260.28;;;18.97;72.52
69171;BME280;56279;47.902;12.308;2022-07-29T02:14:17;95256.50;;;18.98;73.08
69171;BME280;56279;47.902;12.308;2022-07-29T02:16:28;95258.06;;;18.99;72.74
69171;BME280;56279;47.902;12.308;2022-07-29T02:18:46;95248.16;;;18.99;72.74
69171;BME280;56279;47.902;12.308;2022-07-29T02:21:15;95243.56;;;19.00;73.05
69171;BME280;56279;47.902;12.308;2022-07-29T02:24:34;95239.34;;;18.99;72.58
69171;BME280;56279;47.902;12.308;2022-07-29T02:32:04;95236.09;;;18.93;72.91
69171;BME280;56279;47.902;12.308;2022-07-29T03:15:44;95271.56;;;18.08;74.52
69171;BME280;56279;47.902;12.308;2022-07-29T03:19:13;95265.16;;;18.00;74.79
69171;BME280;56279;47.902;12.308;2022-07-29T03:29:58;95261.69;;;17.79;75.91
69171;BME280;56279;47.902;12.308;2022-07-29T03:32:54;95253.56;;;17.75;76.05
69171;BME280;56279;47.902;12.308;2022-07-29T03:35:09;95261.56;;;17.75;75.99
69171;BME280;56279;47.902;12.308;2022-07-29T03:37:24;95258.91;;;17.75;76.38
69171;BME280;56279;47.902;12.308;2022-07-29T03:39:39;95257.47;;;17.78;76.33
69171;BME280;56279;47.902;12.308;2022-07-29T03:42:02;95252.13;;;17.78;76.39
69171;BME280;56279;47.902;12.308;2022-07-29T03:44:44;95254.47;;;17.79;76.69
69171;BME280;56279;47.902;12.308;2022-07-29T03:47:02;95251.91;;;17.83;76.81
69171;BME280;56279;47.902;12.308;2022-07-29T03:49:16;95258.03;;;17.83;76.65
69171;BME280;56279;47.902;12.308;2022-07-29T03:51:23;95254.75;;;17.86;76.89
69171;BME280;56279;47.902;12.308;2022-07-29T03:53:37;95252.53;;;17.88;77.32
69171;BME280;56279;47.902;12.308;2022-07-29T03:55:51;95245.75;;;17.91;77.67
69171;BME280;56279;47.902;12.308;2022-07-29T03:58:00;95256.59;;;17.94;77.74
69171;BME280;56279;47.902;12.308;2022-07-29T04:00:11;95244.13;;;17.99;77.45
69171;BME280;56279;47.902;12.308;2022-07-29T04:02:16;95247.72;;;18.03;77.29
69171;BME280;56279;47.902;12.308;2022-07-29T04:04:28;95251.00;;;18.08;77.58
69171;BME280;56279;47.902;12.308;2022-07-29T04:06:42;95248.13;;;18.13;77.21
69171;BME280;56279;47.902;12.308;2022-07-29T04:08:43;95242.91;;;18.17;77.38
69171;BME280;56279;47.902;12.308;2022-07-29T04:10:50;95250.72;;;18.22;77.27
69171;BME280;56279;47.902;12.308;2022-07-29T04:12:58;95254.31;;;18.26;77.10
69171;BME280;56279;47.902;12.308;2022-07-29T04:15:04;95254.09;;;18.31;76.92
69171;BME280;56279;47.902;12.308;2022-07-29T04:17:08;95256.13;;;18.34;76.81
69171;BME280;56279;47.902;12.308;2022-07-29T04:19:12;95258.13;;;18.37;76.63
69171;BME280;56279;47.902;12.308;2022-07-29T04:21:13;95256.41;;;18.41;76.31
69171;BME280;56279;47.902;12.308;2022-07-29T04:23:15;95261.56;;;18.46;76.17
69171;BME280;56279;47.902;12.308;2022-07-29T04:25:24;95267.94;;;18.53;76.11
69171;BME280;56279;47.902;12.308;2022-07-29T04:27:29;95272.28;;;18.58;75.45
69171;BME280;56279;47.902;12.308;2022-07-29T04:29:32;95265.66;;;18.64;75.10
69171;BME280;56279;47.902;12.308;2022-07-29T04:32:08;95277.25;;;18.68;74.88
69171;BME280;56279;47.902;12.308;2022-07-29T04:34:22;95272.34;;;18.70;74.88
69171;BME280;56279;47.902;12.308;2022-07-29T04:36:35;95274.72;;;18.72;74.97
69171;BME280;56279;47.902;12.308;2022-07-29T04:38:57;95280.16;;;18.75;74.68
69171;BME280;56279;47.902;12.308;2022-07-29T04:41:13;95274.63;;;18.80;74.30
69171;BME280;56279;47.902;12.308;2022-07-29T04:43:27;95279.31;;;18.83;74.09
69171;BME280;56279;47.902;12.308;2022-07-29T04:49:14;95278.88;;;18.93;73.64
69171;BME280;56279;47.902;12.308;2022-07-29T05:02:32;95276.03;;;19.10;72.88
69171;BME280;56279;47.902;12.308;2022-07-29T05:25:18;95286.63;;;19.76;72.12
69171;BME280;56279;47.902;12.308;2022-07-29T05:27:19;95287.16;;;19.81;71.71
69171;BME280;56279;47.902;12.308;2022-07-29T05:29:27;95284.94;;;19.83;71.72
69171;BME280;56279;47.902;12.308;2022-07-29T05:33:58;95294.41;;;19.93;71.72
69171;BME280;56279;47.902;12.308;2022-07-29T05:36:06;95291.06;;;19.96;71.85
69171;BME280;56279;47.902;12.308;2022-07-29T05:40:48;95291.41;;;20.07;71.11
69171;BME280;56279;47.902;12.308;2022-07-29T05:42:53;95293.06;;;20.11;71.24
69171;BME280;56279;47.902;12.308;2022-07-29T05:44:55;95296.28;;;20.17;71.36
69171;BME280;56279;47.902;12.308;2022-07-29T05:46:58;95297.19;;;20.21;70.95
69171;BME280;56279;47.902;12.308;2022-07-29T05:49:00;95295.06;;;20.26;70.33
69171;BME280;56279;47.902;12.308;2022-07-29T05:51:01;95295.63;;;20.32;69.91
69171;BME280;56279;47.902;12.308;2022-07-29T05:53:03;95303.09;;;20.38;69.75
69171;BME280;56279;47.902;12.308;2022-07-29T05:55:05;95300.97;;;20.44;69.30
69171;BME280;56279;47.902;12.308;2022-07-29T05:57:06;95298.50;;;20.51;69.51
69171;BME280;56279;47.902;12.308;2022-07-29T05:59:08;95298.25;;;20.56;69.01
69171;BME280;56279;47.902;12.308;2022-07-29T06:01:09;95300.66;;;20.61;69.25
69171;BME280;56279;47.902;12.308;2022-07-29T06:03:10;95299.34;;;20.67;69.49
69171;BME280;56279;47.902;12.308;2022-07-29T06:05:12;95304.91;;;20.74;69.24
69171;BME280;56279;47.902;12.308;2022-07-29T06:07:13;95299.72;;;20.81;68.51
69171;BME280;56279;47.902;12.308;2022-07-29T06:09:15;95302.91;;;20.87;68.87
69171;BME280;56279;47.902;12.308;2022-07-29T06:11:16;95303.47;;;20.92;68.63
69171;BME280;56279;47.902;12.308;2022-07-29T06:13:17;95304.88;;;21.02;68.12
69171;BME280;56279;47.902;12.308;2022-07-29T06:15:22;95300.16;;;21.11;68.38
69171;BME280;56279;47.902;12.308;2022-07-29T06:23:18;95307.81;;;21.40;67.89
69171;BME280;56279;47.902;12.308;2022-07-29T06:25:34;95309.50;;;21.45;67.82
69171;BME280;56279;47.902;12.308;2022-07-29T06:27:56;95309.56;;;21.48;67.68
69171;BME280;56279;47.902;12.308;2022-07-29T06:30:00;95311.56;;;21.51;67.44
69171;BME280;56279;47.902;12.308;2022-07-29T06:32:05;95314.25;;;21.51;67.03
69171;BME280;56279;47.902;12.308;2022-07-29T06:34:15;95313.91;;;21.53;67.15
69171;BME280;56279;47.902;12.308;2022-07-29T06:36:20;95316.22;;;21.54;66.95
69171;BME280;56279;47.902;12.308;2022-07-29T06:38:30;95317.03;;;21.55;67.21
69171;BME280;56279;47.902;12.308;2022-07-29T06:40:50;95320.84;;;21.54;67.83
69171;BME280;56279;47.902;12.308;2022-07-29T06:43:56;95324.75;;;21.56;68.07
69171;BME280;56279;47.902;12.308;2022-07-29T06:46:34;95327.50;;;21.60;67.34
69171;BME280;56279;47.902;12.308;2022-07-29T06:48:48;95326.13;;;21.66;67.18
69171;BME280;56279;47.902;12.308;2022-07-29T06:51:28;95327.50;;;21.75;66.45
69171;BME280;56279;47.902;12.308;2022-07-29T06:53:59;95328.59;;;21.86;66.02
69171;BME280;56279;47.902;12.308;2022-07-29T06:57:32;95330.91;;;22.03;65.53
69171;BME280;56279;47.902;12.308;2022-07-29T07:03:41;95335.06;;;22.17;63.91
69171;BME280;56279;47.902;12.308;2022-07-29T07:05:46;95346.31;;;22.22;62.99
69171;BME280;56279;47.902;12.308;2022-07-29T07:12:35;95335.03;;;22.67;61.91
69171;BME280;56279;47.902;12.308;2022-07-29T07:18:18;95339.50;;;22.44;62.56
69171;BME280;56279;47.902;12.308;2022-07-29T07:20:25;95341.59;;;22.35;62.60
69171;BME280;56279;47.902;12.308;2022-07-29T07:33:44;95343.97;;;21.74;64.74
69171;BME280;56279;47.902;12.308;2022-07-29T07:39:19;95343.28;;;21.77;63.80
69171;BME280;56279;47.902;12.308;2022-07-29T07:41:28;95346.41;;;21.79;63.62
69171;BME280;56279;47.902;12.308;2022-07-29T07:43:44;95350.66;;;21.80;64.14
69171;BME280;56279;47.902;12.308;2022-07-29T07:45:55;95351.56;;;21.84;64.09
69171;BME280;56279;47.902;12.308;2022-07-29T07:47:59;95346.25;;;21.87;63.76
69171;BME280;56279;47.902;12.308;2022-07-29T07:50:14;95349.81;;;21.91;63.74
69171;BME280;56279;47.902;12.308;2022-07-29T07:52:20;95345.66;;;21.94;64.08
69171;BME280;56279;47.902;12.308;2022-07-29T07:54:24;95351.91;;;21.98;64.30
69171;BME280;56279;47.902;12.308;2022-07-29T07:56:29;95350.13;;;22.06;64.49
69171;BME280;56279;47.902;12.308;2022-07-29T07:58:39;95348.75;;;22.12;63.91
69171;BME280;56279;47.902;12.308;2022-07-29T08:00:59;95341.66;;;22.19;64.01
69171;BME280;56279;47.902;12.308;2022-07-29T08:12:17;95349.41;;;22.40;63.74
69171;BME280;56279;47.902;12.308;2022-07-29T08:14:23;95355.91;;;22.39;63.34
69171;BME280;56279;47.902;12.308;2022-07-29T08:16:30;95353.59;;;22.37;62.92
69171;BME280;56279;47.902;12.308;2022-07-29T08:18:34;95358.59;;;22.39;62.83
69171;BME280;56279;47.902;12.308;2022-07-29T08:20:43;95362.13;;;22.43;63.09
69171;BME280;56279;47.902;12.308;2022-07-29T08:22:44;95347.56;;;22.44;63.04
69171;BME280;56279;47.902;12.308;2022-07-29T08:24:46;95353.38;;;22.46;63.33
69171;BME280;56279;47.902;12.308;2022-07-29T08:26:53;95347.72;;;22.51;63.03
69171;BME280;56279;47.902;12.308;2022-07-29T08:28:54;95347.47;;;22.56;62.97
69171;BME280;56279;47.902;12.308;2022-07-29T08:30:56;95337.03;;;22.54;62.84
69171;BME280;56279;47.902;12.308;2022-07-29T08:32:58;95348.75;;;22.62;63.32
69171;BME280;56279;47.902;12.308;2022-07-29T08:35:02;95339.03;;;22.73;63.78
69171;BME280;56279;47.902;12.308;2022-07-29T08:37:04;95335.06;;;22.86;63.18
69171;BME280;56279;47.902;12.308;2022-07-29T08:39:05;95338.81;;;23.01;62.90
69171;BME280;56279;47.902;12.308;2022-07-29T08:41:07;95343.28;;;23.12;62.31
69171;BME280;56279;47.902;12.308;2022-07-29T08:43:09;95330.34;;;23.21;62.08
69171;BME280;56279;47.902;12.308;2022-07-29T08:45:10;95336.72;;;23.32;62.20
69171;BME280;56279;47.902;12.308;2022-07-29T08:47:13;95338.00;;;23.38;61.74
69171;BME280;56279;47.902;12.308;2022-07-29T08:49:16;95339.28;;;23.45;61.59
69171;BME280;56279;47.902;12.308;2022-07-29T08:51:19;95341.81;;;23.57;61.24
69171;BME280;56279;47.902;12.308;2022-07-29T08:53:21;95340.84;;;23.68;61.40
69171;BME280;56279;47.902;12.308;2022-07-29T08:55:25;95345.59;;;23.75;60.91
69171;BME280;56279;47.902;12.308;2022-07-29T08:57:27;95346.81;;;23.81;60.38
69171;BME280;56279;47.902;12.308;2022-07-29T09:06:47;95348.72;;;24.26;59.60
69171;BME280;56279;47.902;12.308;2022-07-29T09:08:48;95346.44;;;24.28;59.32
69171;BME280;56279;47.902;12.308;2022-07-29T09:10:50;95351.16;;;24.34;59.28
69171;BME280;56279;47.902;12.308;2022-07-29T09:12:53;95341.66;;;24.44;58.98
69171;BME280;56279;47.902;12.308;2022-07-29T09:14:55;95344.63;;;24.61;58.37
69171;BME280;56279;47.902;12.308;2022-07-29T09:16:56;95352.97;;;24.79;57.97
69171;BME280;56279;47.902;12.308;2022-07-29T09:18:58;95353.56;;;24.95;57.39
69171;BME280;56279;47.902;12.308;2022-07-29T09:20:59;95348.34;;;25.09;56.25
69171;BME280;56279;47.902;12.308;2022-07-29T09:23:19;95350.88;;;25.28;56.38
69171;BME280;56279;47.902;12.308;2022-07-29T09:27:35;95351.28;;;25.64;55.50
69171;BME280;56279;47.902;12.308;2022-07-29T09:29:37;95348.72;;;25.78;53.73
69171;BME280;56279;47.902;12.308;2022-07-29T09:31:44;95343.03;;;25.90;53.08
69171;BME280;56279;47.902;12.308;2022-07-29T09:33:46;95344.59;;;25.94;52.58
69171;BME280;56279;47.902;12.308;2022-07-29T09:38:13;95353.56;;;26.02;51.65
69171;BME280;56279;47.902;12.308;2022-07-29T09:40:19;95344.59;;;25.94;51.38
69171;BME280;56279;47.902;12.308;2022-07-29T09:42:28;95346.06;;;25.85;51.85
69171;BME280;56279;47.902;12.308;2022-07-29T09:44:45;95346.03;;;25.81;51.66
69171;BME280;56279;47.902;12.308;2022-07-29T09:47:01;95340.69;;;25.88;52.57
69171;BME280;56279;47.902;12.308;2022-07-29T09:49:11;95337.69;;;25.97;52.03
69171;BME280;56279;47.902;12.308;2022-07-29T09:51:19;95339.25;;;26.01;51.83
69171;BME280;56279;47.902;12.308;2022-07-29T09:53:35;95333.56;;;26.10;52.04
69171;BME280;56279;47.902;12.308;2022-07-29T09:55:49;95341.34;;;26.19;53.24
69171;BME280;56279;47.902;12.308;2022-07-29T09:58:20;95337.16;;;26.25;53.17
69171;BME280;56279;47.902;12.308;2022-07-29T10:00:22;95333.69;;;26.28;52.03
69171;BME280;56279;47.902;12.308;2022-07-29T10:02:33;95339.06;;;26.24;52.28
69171;BME280;56279;47.902;12.308;2022-07-29T10:04:42;95337.16;;;26.25;51.45
69171;BME280;56279;47.902;12.308;2022-07-29T10:07:00;95343.75;;;26.31;52.15
69171;BME280;56279;47.902;12.308;2022-07-29T10:09:11;95334.09;;;26.33;51.39
69171;BME280;56279;47.902;12.308;2022-07-29T10:11:18;95328.63;;;26.26;51.61
69171;BME280;56279;47.902;12.308;2022-07-29T10:13:25;95339.06;;;26.21;53.00
69171;BME280;56279;47.902;12.308;2022-07-29T10:15:32;95338.63;;;26.19;52.39
69171;BME280;56279;47.902;12.308;2022-07-29T10:17:34;95334.78;;;26.20;52.80
69171;BME280;56279;47.902;12.308;2022-07-29T10:19:39;95334.84;;;26.30;53.50
69171;BME280;56279;47.902;12.308;2022-07-29T10:21:40;95329.50;;;26.41;53.90
69171;BME280;56279;47.902;12.308;2022-07-29T10:23:46;95327.63;;;26.52;54.04
69171;BME280;56279;47.902;12.308;2022-07-29T10:25:47;95329.66;;;26.62;52.70
69171;BME280;56279;47.902;12.308;2022-07-29T10:27:55;95326.94;;;26.62;51.78
69171;BME280;56279;47.902;12.308;2022-07-29T10:30:00;95323.78;;;26.53;52.60
69171;BME280;56279;47.902;12.308;2022-07-29T10:32:52;95317.59;;;26.49;51.48
69171;BME280;56279;47.902;12.308;2022-07-29T10:35:08;95326.47;;;26.46;50.38
69171;BME280;56279;47.902;12.308;2022-07-29T10:40:15;95324.88;;;26.45;48.55
69171;BME280;56279;47.902;12.308;2022-07-29T10:42:39;95319.13;;;26.46;48.84
69171;BME280;56279;47.902;12.308;2022-07-29T10:44:41;95321.44;;;26.48;48.62
69171;BME280;56279;47.902;12.308;2022-07-29T10:46:50;95314.09;;;26.48;48.38
69171;BME280;56279;47.902;12.308;2022-07-29T10:49:15;95318.75;;;26.51;48.51
69171;BME280;56279;47.902;12.308;2022-07-29T10:54:00;95316.50;;;26.64;49.34
69171;BME280;56279;47.902;12.308;2022-07-29T10:56:32;95316.94;;;26.73;48.95
69171;BME280;56279;47.902;12.308;2022-07-29T10:58:36;95312.69;;;26.72;48.69
69171;BME280;56279;47.902;12.308;2022-07-29T11:00:46;95306.94;;;26.84;48.63
69171;BME280;56279;47.902;12.308;2022-07-29T11:02:51;95315.53;;;26.93;49.16
69171;BME280;56279;47.902;12.308;2022-07-29T11:09:20;95310.13;;;27.07;48.11
69171;BME280;56279;47.902;12.308;2022-07-29T11:11:49;95314.81;;;27.17;47.41
69171;BME280;56279;47.902;12.308;2022-07-29T11:13:54;95313.69;;;27.25;48.12
69171;BME280;56279;47.902;12.308;2022-07-29T11:15:58;95302.88;;;27.32;47.35
69171;BME280;56279;47.902;12.308;2022-07-29T11:20:39;95296.72;;;27.39;46.92
69171;BME280;56279;47.902;12.308;2022-07-29T11:22:43;95303.66;;;27.40;45.93
69171;BME280;56279;47.902;12.308;2022-07-29T11:24:44;95308.34;;;27.39;46.19
69171;BME280;56279;47.902;12.308;2022-07-29T11:26:45;95307.94;;;27.37;46.13
69171;BME280;56279;47.902;12.308;2022-07-29T11:29:19;95301.75;;;27.37;46.20
69171;BME280;56279;47.902;12.308;2022-07-29T11:31:49;95306.75;;;27.38;46.13
69171;BME280;56279;47.902;12.308;2022-07-29T11:36:16;95301.34;;;27.38;45.45
69171;BME280;56279;47.902;12.308;2022-07-29T11:38:27;95291.31;;;27.53;46.09
69171;BME280;56279;47.902;12.308;2022-07-29T11:40:29;95297.53;;;27.75;46.70
69171;BME280;56279;47.902;12.308;2022-07-29T11:44:58;95299.09;;;28.11;46.39
69171;BME280;56279;47.902;12.308;2022-07-29T11:47:07;95299.47;;;28.20;46.80
69171;BME280;56279;47.902;12.308;2022-07-29T11:49:10;95290.53;;;28.30;45.72
69171;BME280;56279;47.902;12.308;2022-07-29T11:51:15;95289.34;;;28.42;44.98
69171;BME280;56279;47.902;12.308;2022-07-29T11:53:26;95293.59;;;28.43;44.61
69171;BME280;56279;47.902;12.308;2022-07-29T11:55:28;95291.66;;;28.43;44.44
69171;BME280;56279;47.902;12.308;2022-07-29T11:57:36;95294.38;;;28.43;44.50
69171;BME280;56279;47.902;12.308;2022-07-29T11:59:42;95288.56;;;28.48;44.18
69171;BME280;56279;47.902;12.308;2022-07-29T12:01:57;95285.41;;;28.57;43.54
69171;BME280;56279;47.902;12.308;2022-07-29T12:04:05;95292.06;;;28.63;44.30
69171;BME280;56279;47.902;12.308;2022-07-29T12:06:14;95288.97;;;28.61;44.05
69171;BME280;56279;47.902;12.308;2022-07-29T12:08:19;95284.69;;;28.46;44.26
69171;BME280;56279;47.902;12.308;2022-07-29T12:10:30;95280.44;;;28.38;44.74
69171;BME280;56279;47.902;12.308;2022-07-29T12:12:40;95282.41;;;28.30;44.55
69171;BME280;56279;47.902;12.308;2022-07-29T12:14:42;95272.72;;;28.22;46.02
69171;BME280;56279;47.902;12.308;2022-07-29T12:16:47;95275.03;;;28.20;45.65
69171;BME280;56279;47.902;12.308;2022-07-29T12:19:14;95276.59;;;28.11;44.88
69171;BME280;56279;47.902;12.308;2022-07-29T12:21:16;95275.06;;;28.02;44.65
69171;BME280;56279;47.902;12.308;2022-07-29T12:23:17;95261.09;;;27.97;45.33
69171;BME280;56279;47.902;12.308;2022-07-29T12:25:19;95260.31;;;27.89;45.42
69171;BME280;56279;47.902;12.308;2022-07-29T12:27:25;95260.72;;;27.81;45.03
69171;BME280;56279;47.902;12.308;2022-07-29T12:29:32;95259.16;;;27.73;46.11
69171;BME280;56279;47.902;12.308;2022-07-29T12:31:34;95254.91;;;27.72;46.68
69171;BME280;56279;47.902;12.308;2022-07-29T12:33:36;95251.78;;;27.73;45.25
69171;BME280;56279;47.902;12.308;2022-07-29T12:35:38;95253.72;;;27.76;46.37
69171;BME280;56279;47.902;12.308;2022-07-29T12:37:48;95251.78;;;27.80;45.16
69171;BME280;56279;47.902;12.308;2022-07-29T12:39:52;95250.25;;;27.79;45.01
69171;BME280;56279;47.902;12.308;2022-07-29T12:41:57;95249.84;;;27.81;46.00
69171;BME280;56279;47.902;12.308;2022-07-29T12:44:06;95252.56;;;27.84;45.88
69171;BME280;56279;47.902;12.308;2022-07-29T12:46:26;95251.81;;;27.77;46.37
69171;BME280;56279;47.902;12.308;2022-07-29T12:48:41;95235.53;;;27.63;46.23
69171;BME280;56279;47.902;12.308;2022-07-29T12:51:02;95240.16;;;27.62;45.98
69171;BME280;56279;47.902;12.308;2022-07-29T12:53:13;95244.81;;;27.69;46.14
69171;BME280;56279;47.902;12.308;2022-07-29T12:55:37;95252.56;;;27.88;45.15
69171;BME280;56279;47.902;12.308;2022-07-29T12:57:51;95242.50;;;28.02;44.67
69171;BME280;56279;47.902;12.308;2022-07-29T13:00:11;95237.81;;;28.14;43.78
69171;BME280;56279;47.902;12.308;2022-07-29T13:02:23;95240.53;;;28.17;43.87
69171;BME280;56279;47.902;12.308;2022-07-29T13:04:33;95235.88;;;28.18;43.16
69171;BME280;56279;47.902;12.308;2022-07-29T13:06:45;95240.94;;;28.19;42.44
69171;BME280;56279;47.902;12.308;2022-07-29T13:11:27;95233.56;;;28.09;42.39
69171;BME280;56279;47.902;12.308;2022-07-29T13:13:31;95226.19;;;28.20;42.32
69171;BME280;56279;47.902;12.308;2022-07-29T13:15:33;95230.81;;;28.30;42.18
69171;BME280;56279;47.902;12.308;2022-07-29T13:17:41;95231.16;;;28.39;42.67
69171;BME280;56279;47.902;12.308;2022-07-29T13:19:45;95241.22;;;28.46;43.10
69171;BME280;56279;47.902;12.308;2022-07-29T13:21:50;95235.81;;;28.46;42.66
69171;BME280;56279;47.902;12.308;2022-07-29T13:23:52;95238.13;;;28.44;43.60
69171;BME280;56279;47.902;12.308;2022-07-29T13:25:53;95231.09;;;28.57;43.37
69171;BME280;56279;47.902;12.308;2022-07-29T13:27:55;95226.81;;;28.66;42.85
69171;BME280;56279;47.902;12.308;2022-07-29T13:29:58;95234.94;;;28.73;42.82
69171;BME280;56279;47.902;12.308;2022-07-29T13:32:00;95235.34;;;28.72;41.08
69171;BME280;56279;47.902;12.308;2022-07-29T13:34:01;95234.19;;;28.69;41.43
69171;BME280;56279;47.902;12.308;2022-07-29T13:36:03;95229.16;;;28.68;41.19
69171;BME280;56279;47.902;12.308;2022-07-29T13:38:04;95238.50;;;28.63;40.79
69171;BME280;56279;47.902;12.308;2022-07-29T13:40:09;95221.00;;;28.57;41.04
69171;BME280;56279;47.902;12.308;2022-07-29T13:42:10;95219.47;;;28.56;41.66
69171;BME280;56279;47.902;12.308;2022-07-29T13:44:14;95220.63;;;28.62;41.76
69171;BME280;56279;47.902;12.308;2022-07-29T13:46:15;95216.78;;;28.63;41.50
69171;BME280;56279;47.902;12.308;2022-07-29T13:48:17;95209.41;;;28.60;40.77
69171;BME280;56279;47.902;12.308;2022-07-29T13:50:21;95219.88;;;28.48;40.36
69171;BME280;56279;47.902;12.308;2022-07-29T13:52:23;95214.84;;;28.43;39.97
69171;BME280;56279;47.902;12.308;2022-07-29T13:54:25;95211.41;;;28.35;40.14
69171;BME280;56279;47.902;12.308;2022-07-29T13:56:35;95207.91;;;28.31;40.55
69171;BME280;56279;47.902;12.308;2022-07-29T13:58:39;95208.31;;;28.30;39.85
69171;BME280;56279;47.902;12.308;2022-07-29T14:00:49;95210.25;;;28.29;39.67
69171;BME280;56279;47.902;12.308;2022-07-29T14:02:53;95195.50;;;28.27;38.86
69171;BME280;56279;47.902;12.308;2022-07-29T14:04:57;95196.69;;;28.26;38.52
69171;BME280;56279;47.902;12.308;2022-07-29T14:06:59;95201.72;;;28.27;38.91
69171;BME280;56279;47.902;12.308;2022-07-29T14:09:09;95191.25;;;28.29;39.00
69171;BME280;56279;47.902;12.308;2022-07-29T14:11:13;95191.63;;;28.35;39.55
69171;BME280;56279;47.902;12.308;2022-07-29T14:13:32;95194.31;;;28.42;39.47
69171;BME280;56279;47.902;12.308;2022-07-29T14:15:34;95190.38;;;28.53;38.84
69171;BME280;56279;47.902;12.308;2022-07-29T14:17:40;95190.34;;;28.67;38.94
69171;BME280;56279;47.902;12.308;2022-07-29T14:19:44;95194.97;;;28.74;38.03
69171;BME280;56279;47.902;12.308;2022-07-29T14:21:46;95188.75;;;28.77;39.35
69171;BME280;56279;47.902;12.308;2022-07-29T14:23:50;95192.59;;;28.87;38.37
69171;BME280;56279;47.902;12.308;2022-07-29T14:25:56;95184.72;;;28.99;38.95
69171;BME280;56279;47.902;12.308;2022-07-29T14:28:00;95189.69;;;29.15;38.20
69171;BME280;56279;47.902;12.308;2022-07-29T14:30:01;95183.47;;;29.21;37.87
69171;BME280;56279;47.902;12.308;2022-07-29T14:32:15;95180.69;;;29.28;38.04
69171;BME280;56279;47.902;12.308;2022-07-29T14:34:22;95182.16;;;29.36;38.32
69171;BME280;56279;47.902;12.308;2022-07-29T14:36:31;95192.88;;;29.58;38.30
69171;BME280;56279;47.902;12.308;2022-07-29T14:38:48;95187.63;;;29.84;37.77
69171;BME280;56279;47.902;12.308;2022-07-29T14:41:33;95187.94;;;29.93;38.19
69171;BME280;56279;47.902;12.308;2022-07-29T14:44:00;95178.56;;;29.98;37.00
69171;BME280;56279;47.902;12.308;2022-07-29T14:46:08;95180.78;;;30.06;37.28
69171;BME280;56279;47.902;12.308;2022-07-29T14:48:15;95183.56;;;30.03;37.95
69171;BME280;56279;47.902;12.308;2022-07-29T14:50:43;95189.44;;;29.98;37.40
69171;BME280;56279;47.902;12.308;2022-07-29T14:52:46;95189.47;;;29.94;37.38
69171;BME280;56279;47.902;12.308;2022-07-29T14:54:57;95186.34;;;29.96;37.46
69171;BME280;56279;47.902;12.308;2022-07-29T14:56:58;95186.44;;;29.89;37.13
69171;BME280;56279;47.902;12.308;2022-07-29T14:59:00;95190.81;;;29.76;37.54
69171;BME280;56279;47.902;12.308;2022-07-29T15:01:02;95182.56;;;29.83;37.45
69171;BME280;56279;47.902;12.308;2022-07-29T15:03:04;95183.22;;;29.97;37.37
69171;BME280;56279;47.902;12.308;2022-07-29T15:05:06;95181.06;;;30.19;37.19
69171;BME280;56279;47.902;12.308;2022-07-29T15:07:07;95177.03;;;30.31;36.47
69171;BME280;56279;47.902;12.308;2022-07-29T15:09:09;95178.97;;;30.34;36.57
69171;BME280;56279;47.902;12.308;2022-07-29T15:11:10;95177.56;;;30.19;37.13
69171;BME280;56279;47.902;12.308;2022-07-29T15:13:12;95179.34;;;29.95;37.34
69171;BME280;56279;47.902;12.308;2022-07-29T15:15:13;95175.66;;;29.71;38.18
69171;BME280;56279;47.902;12.308;2022-07-29T15:17:15;95175.84;;;29.50;38.48
69171;BME280;56279;47.902;12.308;2022-07-29T15:19:16;95179.13;;;29.31;38.36
69171;BME280;56279;47.902;12.308;2022-07-29T15:21:17;95179.66;;;29.05;38.83
69171;BME280;56279;47.902;12.308;2022-07-29T15:23:19;95177.81;;;28.88;40.15
69171;BME280;56279;47.902;12.308;2022-07-29T15:25:20;95179.41;;;28.78;39.88
69171;BME280;56279;47.902;12.308;2022-07-29T15:27:21;95174.81;;;28.71;39.65
69171;BME280;56279;47.902;12.308;2022-07-29T15:29:23;95179.50;;;28.64;40.14
69171;BME280;56279;47.902;12.308;2022-07-29T15:31:24;95169.81;;;28.59;39.49
69171;BME280;56279;47.902;12.308;2022-07-29T15:33:29;95176.03;;;28.53;40.15
69171;BME280;56279;47.902;12.308;2022-07-29T15:35:30;95171.41;;;28.46;40.94
69171;BME280;56279;47.902;12.308;2022-07-29T15:37:32;95172.59;;;28.38;40.09
69171;BME280;56279;47.902;12.308;2022-07-29T15:39:35;95174.56;;;28.34;40.46
69171;BME280;56279;47.902;12.308;2022-07-29T15:41:38;95174.94;;;28.29;40.25
69171;BME280;56279;47.902;12.308;2022-07-29T15:43:45;95173.84;;;28.16;40.83
69171;BME280;56279;47.902;12.308;2022-07-29T15:45:49;95178.91;;;27.93;41.36